createdAt,value
2019-03-10T00:02:30.159Z,11.10
2019-03-10T00:07:28.793Z,11.00
2019-03-10T00:17:21.566Z,11.00
2019-03-10T00:19:50.050Z,10.70
2019-03-10T00:22:18.608Z,10.80
2019-03-10T00:24:47.150Z,11.00
2019-03-10T00:32:12.092Z,11.00
2019-03-10T00:34:40.548Z,11.00
2019-03-10T00:39:43.035Z,11.00
2019-03-10T00:54:57.636Z,10.90
2019-03-10T00:59:54.443Z,10.60
2019-03-10T01:04:51.172Z,10.80
2019-03-10T01:07:19.684Z,10.90
2019-03-10T01:09:48.232Z,10.90
2019-03-10T01:12:16.825Z,10.90
2019-03-10T01:14:45.314Z,10.90
2019-03-10T01:17:14.117Z,10.90
2019-03-10T01:19:43.702Z,10.80
2019-03-10T01:22:12.251Z,10.80
2019-03-10T01:24:40.712Z,10.80
2019-03-10T01:27:09.164Z,10.80
2019-03-10T01:29:37.631Z,10.70
2019-03-10T01:32:17.904Z,10.70
2019-03-10T01:37:25.338Z,10.60
2019-03-10T01:39:53.852Z,10.60
2019-03-10T01:42:22.333Z,10.60
2019-03-10T01:44:50.778Z,10.60
2019-03-10T01:47:19.240Z,10.40
2019-03-10T01:49:47.707Z,10.30
2019-03-10T01:52:16.185Z,10.40
2019-03-10T01:54:44.630Z,10.40
2019-03-10T01:57:14.019Z,9.90
2019-03-10T01:59:42.461Z,10.20
2019-03-10T02:02:10.924Z,10.20
2019-03-10T02:04:39.402Z,10.10
2019-03-10T02:07:07.855Z,10.00
2019-03-10T02:09:36.397Z,9.80
2019-03-10T02:12:04.941Z,9.80
2019-03-10T02:14:33.375Z,9.80
2019-03-10T02:17:01.863Z,9.80
2019-03-10T02:19:30.414Z,9.80
2019-03-10T02:21:58.923Z,9.80
2019-03-10T02:24:27.382Z,9.80
2019-03-10T02:26:55.863Z,9.90
2019-03-10T02:29:24.368Z,9.90
2019-03-10T02:31:52.845Z,9.90
2019-03-10T02:34:21.305Z,9.90
2019-03-10T02:36:49.843Z,9.90
2019-03-10T02:39:18.321Z,9.60
2019-03-10T02:41:46.794Z,10.10
2019-03-10T02:44:15.338Z,10.20
2019-03-10T02:46:43.811Z,10.20
2019-03-10T02:49:12.282Z,10.30
2019-03-10T02:51:40.755Z,10.30
2019-03-10T02:54:09.296Z,10.10
2019-03-10T02:56:37.775Z,10.30
2019-03-10T02:59:06.233Z,10.60
2019-03-10T03:01:34.796Z,10.20
2019-03-10T03:04:03.313Z,10.40
2019-03-10T03:06:31.859Z,10.20
2019-03-10T03:09:00.330Z,10.10
2019-03-10T03:11:28.814Z,10.30
2019-03-10T03:13:57.365Z,10.40
2019-03-10T03:16:25.848Z,10.40
2019-03-10T03:18:54.289Z,10.30
2019-03-10T03:21:22.810Z,10.20
2019-03-10T03:23:51.284Z,10.30
2019-03-10T03:26:19.848Z,10.20
2019-03-10T03:28:48.381Z,10.20
2019-03-10T03:31:16.841Z,10.00
2019-03-10T03:33:45.371Z,9.80
2019-03-10T03:36:22.971Z,10.10
2019-03-10T03:38:54.501Z,10.20
2019-03-10T03:43:52.131Z,10.10
2019-03-10T03:46:20.763Z,10.20
2019-03-10T03:48:49.362Z,10.10
2019-03-10T03:51:17.810Z,10.20
2019-03-10T03:53:46.380Z,10.20
2019-03-10T03:56:14.926Z,10.30
2019-03-10T03:58:43.435Z,10.20
2019-03-10T04:01:28.549Z,10.20
2019-03-10T04:03:57.049Z,10.30
2019-03-10T04:06:25.609Z,10.30
2019-03-10T04:08:54.057Z,10.30
2019-03-10T04:11:22.529Z,10.30
2019-03-10T04:13:51.063Z,10.30
2019-03-10T04:16:19.622Z,10.20
2019-03-10T04:18:48.070Z,10.20
2019-03-10T04:21:16.605Z,10.20
2019-03-10T04:23:45.218Z,10.20
2019-03-10T04:26:13.658Z,10.20
2019-03-10T04:28:42.146Z,10.10
2019-03-10T04:31:10.602Z,10.20
2019-03-10T04:33:39.050Z,10.20
2019-03-10T04:36:07.528Z,10.20
2019-03-10T04:38:36.036Z,10.20
2019-03-10T04:41:04.524Z,10.20
2019-03-10T04:43:32.970Z,10.10
2019-03-10T04:46:01.498Z,9.70
2019-03-10T04:53:26.346Z,9.30
2019-03-10T04:55:59.166Z,9.10
2019-03-10T04:58:27.617Z,9.10
2019-03-10T05:00:57.759Z,8.80
2019-03-10T05:05:54.405Z,8.80
2019-03-10T05:08:22.880Z,8.50
2019-03-10T05:10:51.317Z,8.20
2019-03-10T05:13:19.799Z,8.30
2019-03-10T05:15:48.237Z,8.20
2019-03-10T05:18:16.730Z,8.00
2019-03-10T05:23:27.893Z,7.70
2019-03-10T05:25:56.866Z,7.90
2019-03-10T05:30:53.457Z,7.70
2019-03-10T05:33:21.900Z,7.50
2019-03-10T05:35:50.357Z,7.70
2019-03-10T05:38:18.832Z,7.60
2019-03-10T05:40:47.303Z,7.60
2019-03-10T05:43:15.734Z,7.70
2019-03-10T05:45:44.195Z,7.70
2019-03-10T05:48:12.665Z,7.70
2019-03-10T05:50:41.152Z,7.60
2019-03-10T05:53:09.635Z,7.90
2019-03-10T05:58:06.219Z,7.80
2019-03-10T06:00:42.708Z,7.60
2019-03-10T06:03:05.015Z,7.80
2019-03-10T06:05:33.470Z,8.10
2019-03-10T06:08:01.945Z,7.70
2019-03-10T06:10:30.427Z,8.00
2019-03-10T06:12:58.897Z,7.70
2019-03-10T06:15:27.411Z,7.60
2019-03-10T06:17:55.925Z,7.70
2019-03-10T06:20:24.439Z,7.80
2019-03-10T06:22:52.923Z,7.70
2019-03-10T06:25:21.374Z,7.50
2019-03-10T06:27:49.929Z,7.40
2019-03-10T06:32:46.665Z,7.50
2019-03-10T06:35:15.152Z,7.40
2019-03-10T06:37:43.591Z,7.30
2019-03-10T06:40:12.198Z,7.30
2019-03-10T06:42:40.752Z,7.50
2019-03-10T06:45:09.375Z,7.10
2019-03-10T06:47:37.906Z,7.30
2019-03-10T06:50:09.327Z,7.20
2019-03-10T06:52:37.788Z,7.00
2019-03-10T06:55:06.698Z,7.20
2019-03-10T06:57:35.171Z,7.20
2019-03-10T07:00:04.696Z,8.40
2019-03-10T07:02:33.167Z,7.30
2019-03-10T07:12:26.274Z,7.80
2019-03-10T07:14:54.752Z,7.20
2019-03-10T07:17:23.296Z,7.10
2019-03-10T07:19:51.837Z,7.40
2019-03-10T07:24:48.510Z,7.10
2019-03-10T07:35:01.257Z,7.50
2019-03-10T07:42:33.838Z,7.30
2019-03-10T07:45:16.560Z,6.80
2019-03-10T07:50:22.257Z,7.40
2019-03-10T07:52:52.426Z,7.30
2019-03-10T07:55:22.507Z,7.90
2019-03-10T07:57:55.666Z,7.50
2019-03-10T08:08:16.512Z,7.40
2019-03-10T08:10:46.656Z,7.60
2019-03-10T08:13:28.288Z,7.50
2019-03-10T08:16:07.630Z,7.60
2019-03-10T08:18:37.727Z,8.10
2019-03-10T08:21:16.816Z,7.70
2019-03-10T08:26:16.710Z,7.80
2019-03-10T08:28:56.092Z,7.70
2019-03-10T08:31:26.222Z,7.50
2019-03-10T08:34:05.545Z,7.80
2019-03-10T08:36:51.856Z,7.80
2019-03-10T08:42:20.247Z,7.70
2019-03-10T08:44:50.290Z,7.90
2019-03-10T08:47:23.305Z,7.60
2019-03-10T08:49:53.398Z,7.70
2019-03-10T08:52:23.514Z,7.70
2019-03-10T08:54:53.637Z,7.70
2019-03-10T08:57:42.145Z,7.80
2019-03-10T09:00:22.873Z,7.90
2019-03-10T09:03:01.952Z,8.00
2019-03-10T09:05:32.078Z,7.90
2019-03-10T09:08:18.288Z,7.40
2019-03-10T09:10:48.417Z,7.90
2019-03-10T09:13:34.784Z,8.10
2019-03-10T09:18:52.515Z,8.20
2019-03-10T09:21:35.025Z,7.90
2019-03-10T09:24:05.222Z,8.10
2019-03-10T09:26:35.399Z,8.20
2019-03-10T09:29:11.225Z,8.20
2019-03-10T09:31:44.170Z,8.30
2019-03-10T09:34:17.261Z,8.30
2019-03-10T09:36:56.585Z,8.20
2019-03-10T09:39:26.672Z,8.20
2019-03-10T09:42:09.119Z,8.10
2019-03-10T09:44:45.179Z,8.20
2019-03-10T09:50:00.309Z,8.30
2019-03-10T09:52:39.744Z,8.30
2019-03-10T09:57:42.609Z,9.10
2019-03-10T10:08:28.389Z,9.20
2019-03-10T10:10:59.964Z,9.40
2019-03-10T10:13:38.937Z,9.90
2019-03-10T10:16:11.926Z,9.60
2019-03-10T10:18:58.313Z,9.70
2019-03-10T10:21:28.481Z,9.80
2019-03-10T10:24:01.659Z,9.90
2019-03-10T10:26:31.836Z,9.80
2019-03-10T10:29:11.044Z,9.90
2019-03-10T10:31:50.304Z,10.00
2019-03-10T10:34:23.383Z,10.10
2019-03-10T10:36:56.055Z,10.10
2019-03-10T10:45:12.877Z,10.30
2019-03-10T10:47:51.932Z,10.50
2019-03-10T11:00:51.532Z,10.80
2019-03-10T11:06:09.000Z,10.70
2019-03-10T11:13:53.540Z,10.50
2019-03-10T11:24:07.931Z,10.50
2019-03-10T11:26:38.111Z,10.40
2019-03-10T11:29:13.992Z,10.70
2019-03-10T11:31:49.705Z,10.60
2019-03-10T11:34:19.857Z,10.60
2019-03-10T11:39:21.019Z,10.70
2019-03-10T11:41:59.865Z,10.60
2019-03-10T11:47:12.974Z,10.80
2019-03-10T12:00:19.621Z,10.70
2019-03-10T12:03:01.682Z,11.10
2019-03-10T12:05:31.880Z,10.90
2019-03-10T12:08:02.103Z,10.30
2019-03-10T12:12:58.774Z,10.80
2019-03-10T12:15:27.335Z,10.70
2019-03-10T12:17:55.825Z,10.70
2019-03-10T12:20:24.338Z,10.90
2019-03-10T12:22:52.955Z,10.90
2019-03-10T12:25:21.489Z,10.80
2019-03-10T12:27:49.968Z,10.70
2019-03-10T12:30:18.707Z,10.80
2019-03-10T12:32:47.235Z,11.10
2019-03-10T12:35:15.800Z,10.70
2019-03-10T12:40:13.634Z,11.40
2019-03-10T12:57:35.058Z,11.70
2019-03-10T13:02:33.200Z,12.90
2019-03-10T13:05:01.751Z,13.00
2019-03-10T13:09:58.480Z,13.60
2019-03-10T13:14:59.563Z,13.80
2019-03-10T13:17:25.365Z,13.70
2019-03-10T13:19:53.823Z,13.60
2019-03-10T13:22:22.379Z,13.70
2019-03-10T13:24:50.836Z,13.90
2019-03-10T13:27:19.417Z,13.80
2019-03-10T13:29:47.976Z,14.10
2019-03-10T13:34:44.619Z,14.20
2019-03-10T13:37:13.143Z,13.70
2019-03-10T13:39:41.672Z,14.10
2019-03-10T13:42:10.179Z,14.00
2019-03-10T13:44:38.697Z,14.00
2019-03-10T13:47:07.194Z,14.30
2019-03-10T13:52:03.864Z,14.50
2019-03-10T13:54:32.341Z,14.60
2019-03-10T13:57:00.861Z,14.50
2019-03-10T13:59:29.431Z,14.60
2019-03-10T14:01:57.871Z,14.50
2019-03-10T14:04:26.317Z,14.40
2019-03-10T14:06:54.876Z,14.20
2019-03-10T14:11:51.626Z,14.70
2019-03-10T14:19:16.397Z,14.60
2019-03-10T14:21:44.890Z,14.90
2019-03-10T14:24:13.418Z,14.70
2019-03-10T14:29:10.214Z,15.80
2019-03-10T14:31:38.850Z,14.80
2019-03-10T14:36:35.533Z,14.80
2019-03-10T14:48:58.451Z,15.00
2019-03-10T14:51:27.084Z,15.00
2019-03-10T14:53:55.598Z,14.60
2019-03-10T14:56:24.180Z,14.40
2019-03-10T14:58:52.637Z,14.50
2019-03-10T15:06:20.676Z,14.90
2019-03-10T15:11:17.404Z,14.70
2019-03-10T15:13:45.850Z,14.50
2019-03-10T15:16:14.398Z,14.50
2019-03-10T15:18:42.856Z,14.60
2019-03-10T15:21:12.882Z,14.40
2019-03-10T15:23:41.421Z,14.90
2019-03-10T15:26:11.384Z,14.80
2019-03-10T15:31:08.161Z,14.80
2019-03-10T15:33:36.600Z,15.30
2019-03-10T15:36:05.123Z,14.60
2019-03-10T15:41:01.831Z,15.00
2019-03-10T15:43:30.407Z,14.60
2019-03-10T15:45:58.902Z,14.70
2019-03-10T15:48:27.392Z,14.60
2019-03-10T15:58:20.299Z,13.00
2019-03-10T16:00:48.844Z,12.30
2019-03-10T16:08:33.214Z,12.00
2019-03-10T16:13:29.993Z,11.60
2019-03-10T16:15:58.484Z,11.30
2019-03-10T16:18:27.037Z,11.40
2019-03-10T16:20:55.832Z,11.10
2019-03-10T16:25:52.599Z,11.40
2019-03-10T16:28:21.178Z,11.20
2019-03-10T16:30:49.708Z,11.40
2019-03-10T16:33:18.188Z,11.60
2019-03-10T16:35:47.017Z,11.30
2019-03-10T16:38:15.571Z,11.60
2019-03-10T16:43:12.261Z,11.70
2019-03-10T16:50:37.252Z,11.50
2019-03-10T17:05:27.169Z,11.50
2019-03-10T17:15:24.920Z,11.70
2019-03-10T17:30:24.774Z,10.50
2019-03-10T17:40:20.414Z,10.90
2019-03-10T17:42:49.088Z,10.00
2019-03-10T17:45:19.221Z,10.50
2019-03-10T17:55:14.946Z,10.70
2019-03-10T18:15:10.198Z,10.60
2019-03-10T18:27:35.429Z,10.70
2019-03-10T18:35:01.495Z,10.60
2019-03-10T18:40:00.032Z,10.80
2019-03-10T18:42:28.607Z,10.80
2019-03-10T18:47:25.405Z,10.90
2019-03-10T18:49:55.455Z,10.90
2019-03-10T18:52:24.187Z,10.90
2019-03-10T18:57:22.428Z,11.20
2019-03-10T18:59:53.644Z,10.40
2019-03-10T19:02:22.153Z,10.40
2019-03-10T19:09:47.284Z,11.10
2019-03-10T19:14:43.935Z,11.00
2019-03-10T19:19:40.536Z,11.20
2019-03-10T19:32:01.820Z,10.50
2019-03-10T19:36:58.518Z,10.40
2019-03-10T19:41:55.259Z,10.60
2019-03-10T19:44:23.724Z,10.50
2019-03-10T19:51:48.752Z,10.50
2019-03-10T19:56:45.368Z,10.60
2019-03-10T19:59:13.855Z,10.70
2019-03-10T20:04:10.461Z,10.80
2019-03-10T20:14:03.675Z,10.00
2019-03-10T20:19:00.435Z,10.40
2019-03-10T20:23:57.120Z,10.20
2019-03-10T20:48:41.328Z,9.60
2019-03-10T21:15:53.404Z,9.80
2019-03-10T21:18:21.864Z,9.50
2019-03-10T21:25:46.627Z,9.90
2019-03-10T21:28:15.068Z,9.90
2019-03-10T21:45:33.075Z,8.10
2019-03-10T21:53:36.555Z,6.70
2019-03-10T22:01:01.366Z,5.80
2019-03-10T22:08:26.454Z,5.70
2019-03-10T22:10:54.892Z,6.00
2019-03-10T22:15:51.500Z,5.70
2019-03-10T22:45:29.927Z,6.00
2019-03-10T22:50:26.689Z,5.60
2019-03-10T22:52:55.147Z,5.80
2019-03-10T22:57:51.741Z,5.50
2019-03-10T23:07:55.841Z,6.30
2019-03-10T23:15:20.541Z,6.40
2019-03-10T23:20:17.353Z,6.20
2019-03-10T23:22:47.181Z,6.30
2019-03-10T23:32:41.485Z,5.90
2019-03-10T23:35:10.096Z,5.90
2019-03-10T23:37:38.549Z,6.20
2019-03-10T23:47:35.339Z,6.30
2019-03-10T23:57:29.229Z,6.10
